EmailTwitter


Observations de surface / France / LFBO (07630)

Régions: Québec | Canada | États-Unis | Europe | France | UK | Ailleurs
Station
Affichage
Infos & localisation pour LFBO (07630) | Aide pour décoder les METARs

Observations prises le 2020-02-21 à 06H30 UTC à TOULOUSE/BLAGNAC, FR (LFBO)

Etat du ciel: couvert.

Température: 6.0 Celsius

Point de rosée: 5.0 Celsius

Humidité relative: 93%

Vents: Sud-sud-ouest à 9 km/h ou 5 noeuds.

Pression au niveau moyen de la mer: 103.10 kilopascals.

Visibilité horizontale: 6.21 milles terrestres ou 9.94 kilomètres.

Hauteur du plafond: 549 mètres ( 1800 pieds ).

Observation METAR:

LFBO 210630Z AUTO 20005KT 180V250 9999 BKN018 OVC028 06/05 Q1031 TEMPO 4000 -DZ

OVC007=